createdAt,value
2018-11-11T00:01:56.912Z,1.50
2018-11-11T00:07:59.510Z,1.67
2018-11-11T00:14:04.022Z,1.40
2018-11-11T00:22:40.445Z,1.80
2018-11-11T00:28:42.990Z,1.20
2018-11-11T00:34:45.455Z,1.30
2018-11-11T00:40:47.849Z,1.20
2018-11-11T00:46:50.365Z,1.13
2018-11-11T00:52:53.382Z,1.10
2018-11-11T00:58:55.781Z,1.00
2018-11-11T01:04:58.285Z,1.10
2018-11-11T01:11:01.012Z,1.20
2018-11-11T01:17:03.479Z,1.20
2018-11-11T01:23:05.966Z,1.00
2018-11-11T01:29:08.301Z,1.43
2018-11-11T01:35:13.864Z,0.93
2018-11-11T01:41:16.215Z,1.50
2018-11-11T01:47:18.569Z,1.30
2018-11-11T01:53:21.011Z,1.33
2018-11-11T01:59:23.436Z,1.10
2018-11-11T02:05:25.818Z,1.10
2018-11-11T02:11:28.536Z,1.47
2018-11-11T02:17:30.918Z,1.30
2018-11-11T02:23:33.504Z,1.60
2018-11-11T02:29:35.856Z,0.97
2018-11-11T02:35:38.192Z,1.33
2018-11-11T02:41:40.563Z,1.40
2018-11-11T02:47:43.115Z,1.50
2018-11-11T02:53:46.051Z,1.60
2018-11-11T02:59:48.543Z,1.43
2018-11-11T03:05:51.022Z,1.70
2018-11-11T03:11:53.358Z,1.43
2018-11-11T03:17:55.738Z,1.40
2018-11-11T03:23:58.145Z,1.43
2018-11-11T03:30:00.533Z,1.50
2018-11-11T03:36:03.038Z,1.47
2018-11-11T03:42:05.738Z,1.17
2018-11-11T03:48:08.053Z,1.80
2018-11-11T03:54:10.632Z,1.23
2018-11-11T04:00:14.251Z,1.17
2018-11-11T04:06:17.250Z,1.67
2018-11-11T04:12:19.778Z,1.50
2018-11-11T04:20:54.353Z,1.30
2018-11-11T04:26:56.865Z,1.80
2018-11-11T04:32:59.343Z,1.80
2018-11-11T04:39:01.772Z,1.53
2018-11-11T04:45:05.249Z,1.30
2018-11-11T04:51:07.590Z,1.60
2018-11-11T04:57:10.042Z,1.70
2018-11-11T05:03:12.589Z,1.77
2018-11-11T05:09:15.045Z,1.30
2018-11-11T05:15:19.690Z,1.57
2018-11-11T05:21:22.126Z,1.23
2018-11-11T05:27:24.503Z,1.50
2018-11-11T05:33:27.234Z,1.40
2018-11-11T05:39:29.605Z,1.93
2018-11-11T05:45:31.933Z,1.13
2018-11-11T05:51:34.282Z,1.23
2018-11-11T05:57:37.023Z,1.40
2018-11-11T06:03:39.597Z,0.90
2018-11-11T06:09:42.053Z,1.40
2018-11-11T06:15:44.438Z,1.57
2018-11-11T06:21:46.919Z,1.03
2018-11-11T06:27:49.478Z,1.37
2018-11-11T06:33:52.133Z,1.50
2018-11-11T06:39:54.685Z,1.17
2018-11-11T06:45:57.183Z,1.50
2018-11-11T06:51:59.629Z,1.40
2018-11-11T06:58:02.154Z,1.30
2018-11-11T07:04:04.728Z,1.13
2018-11-11T07:10:07.205Z,1.03
2018-11-11T07:16:09.907Z,1.43
2018-11-11T07:22:12.455Z,1.60
2018-11-11T07:28:14.860Z,1.27
2018-11-11T07:34:17.192Z,1.30
2018-11-11T07:40:19.793Z,1.30
2018-11-11T07:46:22.280Z,1.20
2018-11-11T07:52:24.773Z,1.23
2018-11-11T07:58:27.685Z,1.23
2018-11-11T08:04:30.046Z,1.10
2018-11-11T08:10:43.933Z,1.40
2018-11-11T08:16:46.530Z,1.07
2018-11-11T08:22:49.070Z,1.27
2018-11-11T08:28:51.628Z,1.00
2018-11-11T08:34:55.885Z,0.80
2018-11-11T08:40:58.496Z,0.93
2018-11-11T08:47:01.145Z,1.30
2018-11-11T08:53:03.834Z,1.60
2018-11-11T08:59:06.366Z,1.00
2018-11-11T09:05:08.900Z,2.57
2018-11-11T09:11:11.614Z,1.40
2018-11-11T09:17:14.122Z,1.00
2018-11-11T09:23:16.664Z,1.50
2018-11-11T09:29:19.132Z,1.10
2018-11-11T09:35:21.772Z,0.70
2018-11-11T09:41:24.086Z,0.60
2018-11-11T09:47:26.650Z,1.07
2018-11-11T09:53:29.100Z,0.73
2018-11-11T09:59:31.556Z,0.83
2018-11-11T10:05:41.114Z,1.00
2018-11-11T10:13:52.015Z,1.00
2018-11-11T10:20:14.478Z,1.07
2018-11-11T10:26:24.650Z,1.00
2018-11-11T10:32:50.772Z,1.10
2018-11-11T10:39:04.568Z,2.03
2018-11-11T10:46:11.740Z,0.90
2018-11-11T10:52:15.210Z,1.30
2018-11-11T10:58:17.908Z,0.80
2018-11-11T11:04:20.380Z,0.80
2018-11-11T11:10:22.860Z,0.80
2018-11-11T11:16:25.610Z,1.33
2018-11-11T11:22:28.034Z,1.10
2018-11-11T11:28:30.982Z,0.97
2018-11-11T11:34:33.442Z,1.17
2018-11-11T11:40:35.882Z,1.50
2018-11-11T11:46:38.433Z,1.00
2018-11-11T11:52:41.739Z,1.47
2018-11-11T11:58:50.989Z,1.37
2018-11-11T12:04:53.835Z,1.33
2018-11-11T12:10:56.258Z,1.50
2018-11-11T12:16:58.918Z,1.33
2018-11-11T12:23:02.075Z,1.50
2018-11-11T12:29:04.616Z,1.50
2018-11-11T12:35:07.726Z,1.27
2018-11-11T12:41:10.344Z,1.13
2018-11-11T12:47:13.254Z,1.43
2018-11-11T12:53:15.695Z,1.40
2018-11-11T12:59:18.105Z,1.80
2018-11-11T13:05:20.535Z,2.20
2018-11-11T13:11:22.982Z,1.67
2018-11-11T13:17:25.486Z,2.90
2018-11-11T13:23:27.967Z,2.70
2018-11-11T13:29:30.454Z,1.50
2018-11-11T13:35:32.853Z,2.13
2018-11-11T13:41:35.508Z,3.97
2018-11-11T13:47:37.962Z,6.13
2018-11-11T13:53:40.511Z,3.43
2018-11-11T13:59:43.077Z,2.30
2018-11-11T14:05:45.528Z,2.10
2018-11-11T14:11:47.981Z,1.80
2018-11-11T14:17:50.706Z,2.30
2018-11-11T14:23:53.241Z,2.13
2018-11-11T14:29:55.715Z,2.20
2018-11-11T14:35:58.246Z,2.93
2018-11-11T14:42:00.715Z,2.40
2018-11-11T14:48:03.132Z,1.80
2018-11-11T14:54:06.259Z,1.20
2018-11-11T15:00:11.811Z,1.27
2018-11-11T15:06:14.257Z,1.90
2018-11-11T15:12:16.993Z,1.50
2018-11-11T15:18:19.461Z,1.40
2018-11-11T15:24:21.933Z,1.60
2018-11-11T15:30:27.592Z,1.87
2018-11-11T15:36:30.078Z,1.97
2018-11-11T15:42:37.636Z,1.87
2018-11-11T15:48:42.677Z,1.60
2018-11-11T15:54:48.342Z,1.70
2018-11-11T16:00:54.641Z,1.70
2018-11-11T16:06:59.853Z,1.80
2018-11-11T16:13:06.260Z,2.03
2018-11-11T16:19:13.571Z,2.20
2018-11-11T16:25:20.122Z,2.30
2018-11-11T16:31:25.686Z,2.20
2018-11-11T16:37:32.229Z,2.67
2018-11-11T16:43:37.369Z,2.50
2018-11-11T16:49:43.999Z,2.60
2018-11-11T16:55:51.116Z,2.20
2018-11-11T17:01:56.506Z,2.37
2018-11-11T17:07:58.891Z,2.03
2018-11-11T17:14:02.771Z,2.27
2018-11-11T17:20:09.274Z,2.10
2018-11-11T17:26:15.107Z,1.80
2018-11-11T17:32:20.538Z,1.87
2018-11-11T17:38:26.118Z,1.90
2018-11-11T17:44:32.231Z,2.03
2018-11-11T17:50:37.009Z,2.47
2018-11-11T17:56:42.346Z,2.27
2018-11-11T18:02:48.402Z,2.90
2018-11-11T18:08:53.605Z,2.23
2018-11-11T18:14:58.502Z,2.83
2018-11-11T18:21:02.334Z,2.50
2018-11-11T18:27:05.048Z,4.37
2018-11-11T18:33:07.609Z,2.60
2018-11-11T18:39:11.526Z,2.40
2018-11-11T18:45:15.257Z,2.67
2018-11-11T18:51:17.663Z,2.33
2018-11-11T18:57:20.276Z,2.33
2018-11-11T19:03:22.822Z,2.63
2018-11-11T19:09:28.985Z,2.67
2018-11-11T19:15:31.568Z,3.23
2018-11-11T19:21:34.270Z,2.30
2018-11-11T19:27:36.757Z,1.73
2018-11-11T19:33:39.557Z,2.10
2018-11-11T19:39:41.900Z,2.10
2018-11-11T19:48:20.564Z,1.80
2018-11-11T19:54:23.035Z,2.10
2018-11-11T20:00:33.391Z,2.20
2018-11-11T20:06:35.980Z,2.00
2018-11-11T20:12:38.804Z,1.60
2018-11-11T20:28:21.487Z,1.40
2018-11-11T20:34:24.006Z,1.87
2018-11-11T20:40:27.360Z,1.80
2018-11-11T20:46:29.942Z,1.50
2018-11-11T20:52:32.621Z,1.67
2018-11-11T20:58:35.090Z,1.62
2018-11-11T21:04:37.833Z,1.57
2018-11-11T21:10:40.623Z,2.00
2018-11-11T21:16:43.287Z,1.73
2018-11-11T21:22:46.638Z,1.37
2018-11-11T21:28:50.740Z,1.87
2018-11-11T21:34:53.652Z,1.57
2018-11-11T21:40:56.402Z,1.70
2018-11-11T21:46:59.724Z,2.30
2018-11-11T21:55:39.029Z,1.70
2018-11-11T22:01:45.356Z,1.70
2018-11-11T22:07:48.012Z,2.00
2018-11-11T22:13:50.487Z,1.90
2018-11-11T22:19:53.019Z,1.93
2018-11-11T22:25:55.537Z,1.63
2018-11-11T22:31:58.143Z,1.40
2018-11-11T22:38:00.744Z,1.63
2018-11-11T22:44:03.680Z,1.80
2018-11-11T22:52:38.576Z,2.00
2018-11-11T22:58:41.104Z,2.03
2018-11-11T23:04:43.700Z,1.50
2018-11-11T23:10:46.415Z,2.00
2018-11-11T23:16:49.102Z,1.93
2018-11-11T23:22:51.575Z,2.07
2018-11-11T23:28:53.994Z,1.70
2018-11-11T23:34:57.274Z,1.80
2018-11-11T23:41:00.032Z,1.60
2018-11-11T23:47:02.522Z,1.77
2018-11-11T23:55:33.833Z,1.67
